Alpine, Idaho
Current Conditions -  °F | °C
As of 5:51 AM on Sunday 21 Dec 2014 (Local Time) from KMYL Reporting Station
Light Rain Light Rain  
Wind Chill: 29°   Ceiling: 2000
Heat Index: 33°   Visibility: 9mi
Dew Point: 32°   Wind: 5mph
Humidity: 96%   Direction: 350°N
Pressure: 29.71"   Gusts: NA
Location:  44.6782°N, 116.766°W
Report Text: KMYL 211251Z AUTO 35004KT 9SM -RA BKN020 OVC028 01/00 A2971 RMK AO2 SLP077 P0002 T00060000
Loading
Personal Weather Stations






























Interactive Weather Map New forecast layout! Learn more

10-Day Weather Forecast

Advertisements
Track Severe Weather on mobile